• Join FlightAware (Why Join?)
  • Login
  • US Flag 
04:05PM EST


 

Airport Tracker/Info


-or-


 

Live Flight TrackerFlight Track Log ✈ DCM1130 ✈ 02-May-2013 ✈ CYHM - KPNE

Flight Track Log - Related Links

Times and Time Zones

All times are in EDT time to prevent confusion due to time zone crossing. See the DCM1130 flight status page for this flight to view local times or setup timezone preferences in your user account.

Time Position Orientation Groundspeed Altitude Reporting Facility
EDT Latitude Longitude Course Direction KTS MPH feet Rate Location/Type
04:17PM 43.2167 -79.8653 148° Southeast 431 496 3,200  Level Cleveland Center
04:17PM 43.2333 -79.8167 65° Northeast 240 276 4,400 1,860 Climbing Toronto Center
04:18PM 43.2167 -79.7167 103° East 250 288 5,900 2,040 Climbing Toronto Center
04:19PM 43.1500 -79.6833 160° South 260 299 8,500 2,400 Climbing Toronto Center
04:20PM 43.0833 -79.6333 151° Southeast 270 311 10,700 2,100 Climbing Toronto Center
04:21PM 43.0000 -79.5833 156° South 330 380 12,700 2,160 Climbing Toronto Center
04:22PM 42.6032 -79.4654 148° Southeast  Level FlightAware Approximate
04:22PM 42.9000 -79.5667 173° South 340 391 15,100  Level Toronto Center
04:23PM 42.8644 -79.5919 208° Southwest 332 382 16,300 2,100 Climbing Cleveland Center
04:24PM 42.7667 -79.5989 183° South 344 396 18,400 2,040 Climbing Cleveland Center
04:25PM 42.6747 -79.5778 170° South 344 396 20,400 1,860 Climbing Cleveland Center
04:26PM 42.5928 -79.4944 143° Southeast 340 391 22,200 1,260 Climbing Cleveland Center
04:27PM 42.5064 -79.4172 147° Southeast 353 406 23,000 420 Climbing Cleveland Center
04:28PM 42.4117 -79.3289 145° Southeast 384 442 23,100 900 Climbing Cleveland Center
04:29PM 42.3211 -79.2464 146° Southeast 397 457 24,800 1,620 Climbing Cleveland Center
04:30PM 42.2325 -79.1614 145° Southeast 397 457 26,400 1,500 Climbing Cleveland Center
04:31PM 42.1419 -79.0822 147° Southeast 397 457 27,900 1,200 Climbing Cleveland Center
04:32PM 42.0450 -78.9978 147° Southeast 397 457 28,900 540 Climbing Cleveland Center
04:33PM 41.9478 -78.9081 146° Southeast 410 472 29,000  Climbing Cleveland Center
04:34PM 41.8486 -78.8186 146° Southeast 424 488 29,000 -60 Level Cleveland Center
04:35PM 41.7492 -78.7267 145° Southeast 429 494 28,900 -600 Descending Cleveland Center
04:36PM 41.6475 -78.6381 147° Southeast 429 494 27,900 -960 Descending Cleveland Center
04:37PM 41.5481 -78.5494 146° Southeast 429 494 27,000 -480 Descending Cleveland Center
04:38PM 41.4506 -78.4639 147° Southeast 429 494 27,000 -780 Level Cleveland Center
04:40PM 41.2897 -78.3208 146° Southeast 430 495 25,000 -360 Descending New York Center
04:42PM 41.1431 -78.1899 146° Southeast  Level FlightAware Approximate
04:44PM 40.9064 -77.9817 130° Southeast 412 474 25,000  Level New York Center
04:46PM 40.7862 -77.8076 132° Southeast  Level FlightAware Approximate
04:46PM 40.7592 -77.7606 110° East 407 468 22,400  Level New York Center
04:47PM 40.6886 -77.6464 129° Southeast 402 463 20,900 -1,500 Descending New York Center
04:48PM 40.6203 -77.5331 128° Southeast 397 457 19,400 -1,440 Descending New York Center
04:49PM 40.6468 -77.5993 130° Southeast  Level FlightAware Approximate
04:49PM 40.5636 -77.3908 118° Southeast 402 463 18,000  Level New York Center
04:50PM 40.5200 -77.2772 117° Southeast 397 457 18,000  Level New York Center
04:51PM 40.4631 -77.1356 118° Southeast 397 457 18,000  Level New York Center
04:52PM 40.4189 -77.0250 118° Southeast 392 451 18,000  Level New York Center
04:53PM 40.3437 -77.1320 131° Southeast  Level FlightAware Approximate
04:53PM 40.3614 -76.8864 119° Southeast 392 451 18,000  Level New York Center
04:54PM 40.2895 -77.0297 110° East  Level FlightAware Approximate
04:54PM 40.3117 -76.7622 118° Southeast 392 451 18,000  Level New York Center
04:55PM 40.2614 -76.6408 118° Southeast 392 451 13,000 -960 Descending New York Center
04:56PM 40.2131 -76.5197 118° Southeast 382 440 16,200 840 Climbing New York Center
04:57PM 40.1683 -76.4128 119° Southeast 376 433 14,800 -1,500 Descending New York Center
04:58PM 40.1203 -76.2842 116° Southeast 365 420 13,200 -1,500 Descending New York Center
04:59PM 40.1108 -76.1692 96° East 344 396 11,800 -1,440 Descending New York Center
05:00PM 40.1058 -76.0522 93° East 334 384 10,400 -1,500 Descending New York Center
05:01PM 40.0978 -75.9511 96° East 303 349 8,900 -1,320 Descending New York Center
05:02PM 40.0917 -75.8531 95° East 279 321 7,900 -540 Descending New York Center
05:03PM 40.0831 -75.7575 97° East 266 306 7,900 -300 Level New York Center
05:04PM 40.0850 -75.6625 88° East 266 306 7,300 -840 Descending New York Center
05:05PM 40.0844 -75.5731 90° East 255 293 6,300 -1,320 Descending New York Center
05:06PM 40.0861 -75.4836 89° East 249 287 4,700 -1,680 Descending New York Center
05:07PM 40.0839 -75.3831 92° East 244 281 3,000 -900 Descending New York Center
05:08PM 40.0853 -75.2908 89° East 249 287 3,000 -60 Level New York Center
05:09PM 40.1047 -75.2161 71° East 225 259 2,900  Descending New York Center
05:10PM 40.1442 -75.1669 44° Northeast 202 232 3,000  Climbing New York Center
05:11PM 40.1794 -75.1178 47° Northeast 194 223 2,900 -540 Descending New York Center
05:12PM 40.1475 -75.0778 136° Southeast 117 135 2,000 -1,020 Descending New York Center
05:13PM 40.1111 -75.0428 144° Southeast 124 143 900 3,060 Descending New York Center
05:14PM 40.0831 -75.0139 142° Southeast 137 158 8,000 3,480 Climbing New York Center
05:15PM 40.0569 -74.9881 143° Southeast 137 158 8,000  Level New York Center
05:16PM 40.0267 -74.9592 144° Southeast 137 158 8,000  Level New York Center
05:17PM 39.9964 -74.9300 144° Southeast 137 158 8,000  Level New York Center
05:18PM 39.9661 -74.9011 144° Southeast 137 158 8,000  Level New York Center
05:19PM 39.9542 -74.8897 144° Southeast 137 158 8,000  Level New York Center
05:21PM 40.0667 -75.0000 327° Northwest  Level FlightAware Approximate
05:28PM 40.0819 -75.0106 327° Northwest  Level Estimated
05:29PM 40.0819 -75.0106 327° Northwest  Level Estimated
05:30PM 40.0819 -75.0106 327° Northwest  Level Estimated